Time;durP1;ratioP1;P1;durP2;ratioP2;P2;SDS_P1;SDS_P2;PMS_P1;PMS_P2;Temp;Humidity;BMP_temperature;BMP_pressure;BME280_temperature;BME280_humidity;BME280_pressure;Samples;Min_cycle;Max_cycle;Signal;HPM_P1;HPM_P2
2021/11/28 00:01:22;;;;;;;;;;;18.00;99.90;;;;;;5062855;28;20307;-71
2021/11/28 00:03:48;;;;;;;;;;;17.90;99.90;;;;;;5060537;28;19928;-73
2021/11/28 00:06:22;;;;;;;;;;;17.90;99.90;;;;;;5058237;28;19989;-73
2021/11/28 00:11:23;;;;;;;;;;;18.00;99.90;;;;;;5064560;28;19913;-74
2021/11/28 00:16:16;;;;;;;;;;;18.10;99.90;;;;;;5058044;28;20382;-74
2021/11/28 00:18:44;;;;;;;;;;;18.20;99.90;;;;;;5060715;28;19920;-74
2021/11/28 00:21:11;;;;;;;;;;;18.20;99.90;;;;;;5062887;28;20291;-71
2021/11/28 00:23:37;;;;;;;;;;;18.20;99.90;;;;;;5059189;28;19921;-70
2021/11/28 00:26:04;;;;;;;;;;;18.20;99.90;;;;;;5057917;28;20015;-69
2021/11/28 00:28:31;;;;;;;;;;;18.20;99.90;;;;;;5063161;28;19919;-71
2021/11/28 00:30:58;;;;;;;;;;;18.10;99.90;;;;;;5062460;28;19919;-69
2021/11/28 00:33:24;;;;;;;;;;;18.10;99.90;;;;;;5057190;28;19919;-73
2021/11/28 00:35:51;;;;;;;;;;;18.10;99.90;;;;;;5058894;28;19919;-70
2021/11/28 00:38:18;;;;;;;;;;;18.20;99.90;;;;;;5063062;28;19920;-76
2021/11/28 00:40:44;;;;;;;;;;;18.30;99.90;;;;;;5057212;28;19962;-72
2021/11/28 00:43:11;;;;;;;;;;;18.30;99.90;;;;;;5062695;28;19997;-71
2021/11/28 00:45:38;;;;;;;;;;;18.40;99.90;;;;;;5067605;28;19913;-73
2021/11/28 00:48:04;;;;;;;;;;;18.40;99.90;;;;;;5063423;28;20261;-74
2021/11/28 00:53:23;;;;;;;;;;;18.40;99.90;;;;;;5057258;28;19912;-72
2021/11/28 00:55:50;;;;;;;;;;;18.50;99.90;;;;;;5058377;28;19913;-73
2021/11/28 00:58:17;;;;;;;;;;;18.60;99.90;;;;;;5062451;28;20566;-72
2021/11/28 01:00:43;;;;;;;;;;;18.80;99.90;;;;;;5061702;28;20414;-72
2021/11/28 01:03:10;;;;;;;;;;;18.90;99.90;;;;;;5057439;28;19927;-74
2021/11/28 01:05:37;;;;;;;;;;;19.00;99.90;;;;;;5062249;28;19919;-70
2021/11/28 01:08:03;;;;;;;;;;;19.10;99.90;;;;;;5065822;28;19924;-70
2021/11/28 01:10:30;;;;;;;;;;;19.20;99.90;;;;;;5063179;28;19913;-73
2021/11/28 01:12:57;;;;;;;;;;;19.10;99.90;;;;;;5068965;28;19960;-69
2021/11/28 01:15:23;;;;;;;;;;;19.20;99.90;;;;;;5061964;28;19916;-69
2021/11/28 01:17:50;;;;;;;;;;;19.10;99.90;;;;;;5061024;28;19966;-68
2021/11/28 01:20:16;;;;;;;;;;;19.10;99.90;;;;;;5066542;28;19922;-70
2021/11/28 01:22:43;;;;;;;;;;;19.00;99.90;;;;;;5065369;28;19975;-73
2021/11/28 01:25:11;;;;;;;;;;;19.10;99.90;;;;;;5066461;28;19912;-73
2021/11/28 01:27:37;;;;;;;;;;;19.10;99.90;;;;;;5061860;28;20371;-73
2021/11/28 01:30:05;;;;;;;;;;;19.00;99.90;;;;;;5056579;28;19960;-67
2021/11/28 01:32:32;;;;;;;;;;;18.80;99.90;;;;;;5065450;28;20247;-68
2021/11/28 01:34:58;;;;;;;;;;;18.80;99.90;;;;;;5057708;28;19923;-73
2021/11/28 01:37:25;;;;;;;;;;;18.80;99.90;;;;;;5064331;28;20279;-68
2021/11/28 01:39:52;;;;;;;;;;;18.80;99.90;;;;;;5060642;28;20019;-72
2021/11/28 01:42:36;;;;;;;;;;;18.90;99.90;;;;;;5063795;28;20489;-67
2021/11/28 01:45:03;;;;;;;;;;;18.80;99.90;;;;;;5065529;28;20050;-69
2021/11/28 01:47:31;;;;;;;;;;;18.80;99.90;;;;;;5061611;28;19913;-71
2021/11/28 01:49:59;;;;;;;;;;;18.80;99.90;;;;;;5067341;28;19920;-73
2021/11/28 01:52:25;;;;;;;;;;;18.90;99.90;;;;;;5064553;28;19913;-70
2021/11/28 01:54:52;;;;;;;;;;;19.00;99.90;;;;;;5060615;28;20293;-73
2021/11/28 01:57:19;;;;;;;;;;;19.00;99.90;;;;;;5063389;28;19986;-72
2021/11/28 01:59:45;;;;;;;;;;;19.10;99.90;;;;;;5060164;28;19925;-70
2021/11/28 02:02:12;;;;;;;;;;;19.10;99.90;;;;;;5064088;28;19932;-68
2021/11/28 02:04:39;;;;;;;;;;;19.30;99.90;;;;;;5065216;28;20063;-70
2021/11/28 02:07:07;;;;;;;;;;;19.40;99.90;;;;;;5060350;28;20367;-73
2021/11/28 02:09:36;;;;;;;;;;;19.20;99.90;;;;;;5060476;28;19924;-67
2021/11/28 02:12:03;;;;;;;;;;;19.30;99.90;;;;;;5059472;28;20351;-73
2021/11/28 02:14:30;;;;;;;;;;;19.30;99.90;;;;;;5060873;28;20003;-69
2021/11/28 02:16:57;;;;;;;;;;;19.10;99.90;;;;;;5065827;28;19913;-73
2021/11/28 02:19:30;;;;;;;;;;;19.20;99.90;;;;;;5064883;28;19926;-72
2021/11/28 02:21:56;;;;;;;;;;;19.30;99.90;;;;;;5056162;28;19961;-73
2021/11/28 02:24:23;;;;;;;;;;;19.40;99.90;;;;;;5064823;28;20014;-71
2021/11/28 02:26:50;;;;;;;;;;;19.30;99.90;;;;;;5060296;28;19966;-73
2021/11/28 02:29:16;;;;;;;;;;;19.30;99.90;;;;;;5060757;28;20443;-70
2021/11/28 02:31:43;;;;;;;;;;;19.60;99.90;;;;;;5064774;28;20368;-73
2021/11/28 02:34:10;;;;;;;;;;;19.60;99.90;;;;;;5077884;28;20290;-72
2021/11/28 02:36:37;;;;;;;;;;;19.40;99.90;;;;;;5059729;28;19924;-69
2021/11/28 02:39:04;;;;;;;;;;;19.20;99.90;;;;;;5062660;28;19950;-68
2021/11/28 02:41:30;;;;;;;;;;;19.20;99.90;;;;;;5064288;28;19921;-70
2021/11/28 02:43:57;;;;;;;;;;;19.20;99.90;;;;;;5059297;28;19917;-72
2021/11/28 02:46:24;;;;;;;;;;;19.10;99.90;;;;;;5059497;28;20287;-68
2021/11/28 02:48:51;;;;;;;;;;;19.10;99.90;;;;;;5063970;28;20283;-70
2021/11/28 02:51:17;;;;;;;;;;;19.10;99.90;;;;;;5063882;28;20010;-71
2021/11/28 02:53:44;;;;;;;;;;;19.30;99.90;;;;;;5059873;28;20005;-72
2021/11/28 02:56:11;;;;;;;;;;;19.30;99.90;;;;;;5060444;28;19912;-70
2021/11/28 02:58:37;;;;;;;;;;;19.30;99.90;;;;;;5059494;28;19939;-72
2021/11/28 03:01:09;;;;;;;;;;;19.40;99.90;;;;;;5060117;28;19916;-73
2021/11/28 03:03:36;;;;;;;;;;;19.50;99.90;;;;;;5059384;28;19965;-69
2021/11/28 03:06:03;;;;;;;;;;;19.50;99.90;;;;;;5060191;28;19919;-70
2021/11/28 03:08:29;;;;;;;;;;;19.40;99.90;;;;;;5063913;28;19917;-72
2021/11/28 03:10:56;;;;;;;;;;;19.50;99.90;;;;;;5059396;28;19935;-68
2021/11/28 03:13:24;;;;;;;;;;;19.60;99.90;;;;;;5063625;28;19978;-69
2021/11/28 03:15:52;;;;;;;;;;;19.50;99.90;;;;;;5061107;28;19913;-68
2021/11/28 03:18:20;;;;;;;;;;;19.30;99.90;;;;;;5062083;28;20449;-69
2021/11/28 03:20:48;;;;;;;;;;;19.10;99.90;;;;;;5062335;28;20363;-68
2021/11/28 03:23:15;;;;;;;;;;;19.00;99.90;;;;;;5063754;28;19916;-69
2021/11/28 03:25:42;;;;;;;;;;;18.90;99.90;;;;;;5059595;28;19912;-69
2021/11/28 03:28:13;;;;;;;;;;;19.00;99.90;;;;;;5057968;28;20294;-71
2021/11/28 03:30:40;;;;;;;;;;;18.90;99.90;;;;;;5062220;28;19913;-72
2021/11/28 03:33:06;;;;;;;;;;;18.90;99.90;;;;;;5063772;28;20374;-71
2021/11/28 03:35:33;;;;;;;;;;;18.90;99.90;;;;;;5059094;28;20007;-70
2021/11/28 03:38:00;;;;;;;;;;;19.00;99.90;;;;;;5058732;28;19916;-70
2021/11/28 03:40:26;;;;;;;;;;;19.00;99.90;;;;;;5063076;28;20283;-73
2021/11/28 03:42:53;;;;;;;;;;;19.00;99.90;;;;;;5067075;28;20014;-69
2021/11/28 03:45:20;;;;;;;;;;;18.90;99.90;;;;;;5064351;28;20390;-73
2021/11/28 03:47:47;;;;;;;;;;;19.00;99.90;;;;;;5056054;28;19958;-73
2021/11/28 03:50:14;;;;;;;;;;;19.10;99.90;;;;;;5063258;28;19927;-73
2021/11/28 03:52:41;;;;;;;;;;;19.10;99.90;;;;;;5061840;28;20004;-71
2021/11/28 03:55:09;;;;;;;;;;;19.10;99.90;;;;;;5058549;28;19913;-74
2021/11/28 03:57:36;;;;;;;;;;;19.00;99.90;;;;;;5061249;28;20019;-71
2021/11/28 04:00:05;;;;;;;;;;;18.80;99.90;;;;;;5062624;28;20339;-73
2021/11/28 04:02:32;;;;;;;;;;;18.90;99.90;;;;;;5059862;28;20383;-72
2021/11/28 04:04:58;;;;;;;;;;;18.80;99.90;;;;;;5058432;28;19920;-73
2021/11/28 04:07:25;;;;;;;;;;;18.90;99.90;;;;;;5062739;28;20326;-69
2021/11/28 04:09:52;;;;;;;;;;;18.80;99.90;;;;;;5062860;28;19963;-73
2021/11/28 04:12:18;;;;;;;;;;;18.60;99.90;;;;;;5054240;28;19913;-73
2021/11/28 04:14:45;;;;;;;;;;;18.60;99.90;;;;;;5062832;28;19927;-69
2021/11/28 04:17:12;;;;;;;;;;;18.60;99.90;;;;;;5061861;28;19913;-70
2021/11/28 04:19:38;;;;;;;;;;;18.60;99.90;;;;;;5058377;28;19924;-72
2021/11/28 04:22:05;;;;;;;;;;;18.50;99.90;;;;;;5062794;28;19912;-74
2021/11/28 04:24:32;;;;;;;;;;;18.50;99.90;;;;;;5062548;28;19919;-71
2021/11/28 04:26:58;;;;;;;;;;;18.40;99.90;;;;;;5063526;28;19913;-74
2021/11/28 04:29:25;;;;;;;;;;;18.40;99.90;;;;;;5061267;28;19920;-74
2021/11/28 04:31:52;;;;;;;;;;;18.40;99.90;;;;;;5057857;28;20287;-71
2021/11/28 04:34:19;;;;;;;;;;;18.30;99.90;;;;;;5059750;28;20403;-72
2021/11/28 04:36:45;;;;;;;;;;;18.30;99.90;;;;;;5060207;28;19920;-73
2021/11/28 04:39:12;;;;;;;;;;;18.40;99.90;;;;;;5062111;28;19950;-72
2021/11/28 04:41:39;;;;;;;;;;;18.50;99.90;;;;;;5058314;28;19921;-72
2021/11/28 04:44:05;;;;;;;;;;;18.60;99.90;;;;;;5066469;28;20039;-70
2021/11/28 04:46:32;;;;;;;;;;;18.60;99.90;;;;;;5066435;28;20375;-74
2021/11/28 04:49:02;;;;;;;;;;;18.60;99.90;;;;;;5062438;28;19920;-72
2021/11/28 04:51:29;;;;;;;;;;;18.50;99.90;;;;;;5060773;28;19922;-69
2021/11/28 04:53:56;;;;;;;;;;;18.40;99.90;;;;;;5066011;28;19913;-73
2021/11/28 04:56:24;;;;;;;;;;;18.40;99.90;;;;;;5066881;28;19913;-68
2021/11/28 04:58:51;;;;;;;;;;;18.40;99.90;;;;;;5066226;28;19931;-73
2021/11/28 05:01:17;;;;;;;;;;;18.30;99.90;;;;;;5065944;28;19912;-73
2021/11/28 05:03:44;;;;;;;;;;;18.20;99.90;;;;;;5058550;28;19932;-72
2021/11/28 05:06:11;;;;;;;;;;;18.30;99.90;;;;;;5064387;28;19974;-72
2021/11/28 05:08:37;;;;;;;;;;;18.30;99.90;;;;;;5061317;28;19913;-74
2021/11/28 05:11:04;;;;;;;;;;;18.30;99.90;;;;;;5065715;28;20264;-73
2021/11/28 05:13:31;;;;;;;;;;;18.30;99.90;;;;;;5061106;28;19920;-73
2021/11/28 05:15:57;;;;;;;;;;;18.30;99.90;;;;;;5066031;28;19912;-74
2021/11/28 05:18:24;;;;;;;;;;;18.40;99.90;;;;;;5066135;28;19916;-73
2021/11/28 05:20:51;;;;;;;;;;;18.30;99.90;;;;;;5061684;28;20283;-72
2021/11/28 05:23:17;;;;;;;;;;;18.20;99.90;;;;;;5061703;28;19997;-74
2021/11/28 05:25:44;;;;;;;;;;;18.30;99.90;;;;;;5065888;28;19913;-70
2021/11/28 05:28:12;;;;;;;;;;;18.20;99.90;;;;;;5065988;28;19913;-75
2021/11/28 05:30:39;;;;;;;;;;;18.10;99.90;;;;;;5061749;28;20291;-75
2021/11/28 05:33:06;;;;;;;;;;;18.00;99.90;;;;;;5061711;28;19912;-74
2021/11/28 05:35:33;;;;;;;;;;;18.20;99.90;;;;;;5065948;28;19912;-74
2021/11/28 05:37:59;;;;;;;;;;;18.30;99.90;;;;;;5064488;28;20731;-71
2021/11/28 05:40:26;;;;;;;;;;;18.30;99.90;;;;;;5061979;28;19943;-71
2021/11/28 05:42:54;;;;;;;;;;;18.30;99.90;;;;;;5063047;28;19919;-74
2021/11/28 05:45:22;;;;;;;;;;;18.10;99.90;;;;;;5065812;28;19927;-74
2021/11/28 05:47:49;;;;;;;;;;;18.10;99.90;;;;;;5062514;28;19912;-75
2021/11/28 05:50:17;;;;;;;;;;;18.10;99.90;;;;;;5060373;28;19971;-72
2021/11/28 05:52:44;;;;;;;;;;;18.10;99.90;;;;;;5064690;28;19942;-74
2021/11/28 05:55:11;;;;;;;;;;;18.10;99.90;;;;;;5065406;28;19924;-73
2021/11/28 05:57:38;;;;;;;;;;;18.00;99.90;;;;;;5061373;28;19912;-74
2021/11/28 06:00:05;;;;;;;;;;;18.00;99.90;;;;;;5060365;28;19943;-70
2021/11/28 06:02:32;;;;;;;;;;;18.00;99.90;;;;;;5066918;28;19927;-73
2021/11/28 06:04:58;;;;;;;;;;;18.00;99.90;;;;;;5060458;28;20004;-68
2021/11/28 06:07:28;;;;;;;;;;;18.00;99.90;;;;;;5064096;28;20136;-71
2021/11/28 06:09:55;;;;;;;;;;;18.00;99.90;;;;;;5062452;28;19952;-73
2021/11/28 06:12:22;;;;;;;;;;;18.00;99.90;;;;;;5060727;28;19946;-74
2021/11/28 06:14:49;;;;;;;;;;;17.90;99.90;;;;;;5061186;28;20310;-71
2021/11/28 06:17:15;;;;;;;;;;;17.80;99.90;;;;;;5065131;28;19920;-75
2021/11/28 06:19:42;;;;;;;;;;;17.80;99.90;;;;;;5063322;28;19921;-74
2021/11/28 06:22:09;;;;;;;;;;;17.70;99.90;;;;;;5059719;28;20158;-71
2021/11/28 06:24:39;;;;;;;;;;;17.80;99.90;;;;;;5062613;28;20410;-66
2021/11/28 06:27:06;;;;;;;;;;;17.80;99.90;;;;;;5064925;28;19948;-74
2021/11/28 06:29:33;;;;;;;;;;;17.80;99.90;;;;;;5061770;28;19928;-75
2021/11/28 06:32:00;;;;;;;;;;;17.80;99.90;;;;;;5059579;28;19930;-73
2021/11/28 06:34:26;;;;;;;;;;;17.80;99.90;;;;;;5064134;28;19919;-74
2021/11/28 06:36:54;;;;;;;;;;;17.70;99.90;;;;;;5060689;28;20287;-72
2021/11/28 06:39:21;;;;;;;;;;;17.60;99.90;;;;;;5064488;28;19972;-74
2021/11/28 06:41:48;;;;;;;;;;;17.60;99.90;;;;;;5061757;28;19960;-71
2021/11/28 06:44:15;;;;;;;;;;;17.50;99.90;;;;;;5060710;28;20232;-71
2021/11/28 06:46:41;;;;;;;;;;;17.50;99.90;;;;;;5059584;28;20379;-74
2021/11/28 06:49:08;;;;;;;;;;;17.60;99.90;;;;;;5064179;28;19913;-73
2021/11/28 06:51:35;;;;;;;;;;;17.60;99.90;;;;;;5064234;28;19949;-72
2021/11/28 06:54:01;;;;;;;;;;;17.50;99.90;;;;;;5059339;28;19924;-71
2021/11/28 06:56:28;;;;;;;;;;;17.50;99.90;;;;;;5067794;28;20359;-74
2021/11/28 06:58:55;;;;;;;;;;;17.60;99.90;;;;;;5059068;28;19920;-71
2021/11/28 07:01:21;;;;;;;;;;;17.50;99.90;;;;;;5061845;28;19924;-73
2021/11/28 07:03:48;;;;;;;;;;;17.40;99.90;;;;;;5062681;28;20021;-74
2021/11/28 07:06:15;;;;;;;;;;;17.40;99.90;;;;;;5061231;28;19919;-72
2021/11/28 07:08:41;;;;;;;;;;;17.40;99.90;;;;;;5059125;28;19920;-75
2021/11/28 07:11:08;;;;;;;;;;;17.30;99.90;;;;;;5066755;28;20394;-75
2021/11/28 07:13:35;;;;;;;;;;;17.30;99.90;;;;;;5057890;28;19999;-74
2021/11/28 07:16:01;;;;;;;;;;;17.30;99.90;;;;;;5059950;28;20067;-74
2021/11/28 07:18:28;;;;;;;;;;;17.20;99.90;;;;;;5058300;28;19916;-72
2021/11/28 07:20:54;;;;;;;;;;;17.30;99.90;;;;;;5063740;28;20291;-71
2021/11/28 07:23:21;;;;;;;;;;;17.30;99.90;;;;;;5059193;28;19921;-75
2021/11/28 07:25:49;;;;;;;;;;;17.40;99.90;;;;;;5063315;28;19913;-72
2021/11/28 07:28:15;;;;;;;;;;;17.40;99.90;;;;;;5062702;28;19920;-73
2021/11/28 07:30:42;;;;;;;;;;;17.40;99.90;;;;;;5058616;28;19919;-73
2021/11/28 07:33:09;;;;;;;;;;;17.40;99.90;;;;;;5060712;28;19920;-68
2021/11/28 07:35:36;;;;;;;;;;;17.30;99.90;;;;;;5062971;28;19912;-68
2021/11/28 07:38:02;;;;;;;;;;;17.30;99.90;;;;;;5060563;28;19913;-70
2021/11/28 07:40:29;;;;;;;;;;;17.20;99.90;;;;;;5074276;28;19935;-75
2021/11/28 07:42:56;;;;;;;;;;;17.20;99.90;;;;;;5065595;28;19958;-73
2021/11/28 07:45:22;;;;;;;;;;;17.20;99.90;;;;;;5057621;28;20015;-74
2021/11/28 07:47:49;;;;;;;;;;;17.30;99.90;;;;;;5062366;28;19913;-74
2021/11/28 07:50:16;;;;;;;;;;;17.20;99.90;;;;;;5063353;28;19912;-74
2021/11/28 07:52:43;;;;;;;;;;;17.20;99.90;;;;;;5059335;28;19973;-72
2021/11/28 07:55:10;;;;;;;;;;;17.20;99.90;;;;;;5058049;28;19965;-74
2021/11/28 07:57:36;;;;;;;;;;;17.20;99.90;;;;;;5058751;28;20003;-74
2021/11/28 08:00:04;;;;;;;;;;;17.10;99.90;;;;;;5058532;28;19920;-75
2021/11/28 08:02:31;;;;;;;;;;;17.20;99.90;;;;;;5062549;28;19920;-75
2021/11/28 08:04:57;;;;;;;;;;;17.10;99.90;;;;;;5061853;28;20015;-73
2021/11/28 08:07:24;;;;;;;;;;;17.10;99.90;;;;;;5063891;28;20003;-69
2021/11/28 08:09:51;;;;;;;;;;;17.10;99.90;;;;;;5065679;28;19916;-72
2021/11/28 08:12:17;;;;;;;;;;;17.10;99.90;;;;;;5062869;28;20256;-75
2021/11/28 08:14:44;;;;;;;;;;;17.10;99.90;;;;;;5062720;28;19917;-75
2021/11/28 08:17:11;;;;;;;;;;;17.10;99.90;;;;;;5062141;28;20029;-74
2021/11/28 08:19:37;;;;;;;;;;;17.00;99.90;;;;;;5065850;28;20009;-73
2021/11/28 08:22:05;;;;;;;;;;;17.00;99.90;;;;;;5068006;28;19974;-75
2021/11/28 08:24:31;;;;;;;;;;;17.00;99.90;;;;;;5062911;28;19912;-73
2021/11/28 08:26:58;;;;;;;;;;;17.10;99.90;;;;;;5061584;28;19916;-74
2021/11/28 08:29:25;;;;;;;;;;;17.10;99.90;;;;;;5066993;28;19957;-73
2021/11/28 08:31:51;;;;;;;;;;;17.00;99.90;;;;;;5066759;28;19920;-74
2021/11/28 08:34:18;;;;;;;;;;;17.10;99.90;;;;;;5062004;28;19923;-72
2021/11/28 08:36:45;;;;;;;;;;;17.10;99.90;;;;;;5063609;28;19912;-72
2021/11/28 08:39:12;;;;;;;;;;;17.10;99.90;;;;;;5066156;28;19923;-75
2021/11/28 08:41:40;;;;;;;;;;;17.00;99.90;;;;;;5060822;28;19927;-76
2021/11/28 08:44:07;;;;;;;;;;;17.00;99.90;;;;;;5066848;28;19942;-72
2021/11/28 08:46:34;;;;;;;;;;;17.00;99.90;;;;;;5064032;28;19969;-70
2021/11/28 08:49:01;;;;;;;;;;;16.90;99.90;;;;;;5064147;28;20282;-67
2021/11/28 08:51:28;;;;;;;;;;;16.90;99.90;;;;;;5072674;28;19912;-70
2021/11/28 08:53:55;;;;;;;;;;;16.80;99.90;;;;;;5067411;28;20284;-68
2021/11/28 08:56:23;;;;;;;;;;;16.80;99.90;;;;;;5070621;28;19913;-67
2021/11/28 08:58:50;;;;;;;;;;;16.80;99.90;;;;;;5069910;28;19916;-69
2021/11/28 09:01:17;;;;;;;;;;;16.80;99.90;;;;;;5063160;28;19923;-67
2021/11/28 09:03:45;;;;;;;;;;;16.80;99.90;;;;;;5063095;28;19974;-66
2021/11/28 09:06:14;;;;;;;;;;;16.80;99.90;;;;;;5063415;28;20284;-68
2021/11/28 09:08:41;;;;;;;;;;;16.80;99.90;;;;;;5064486;28;20011;-69
2021/11/28 09:11:08;;;;;;;;;;;16.80;99.90;;;;;;5066855;28;19919;-66
2021/11/28 09:13:35;;;;;;;;;;;16.80;99.90;;;;;;5065609;28;20344;-71
2021/11/28 09:16:03;;;;;;;;;;;16.80;99.90;;;;;;5059172;28;19913;-66
2021/11/28 09:18:37;;;;;;;;;;;16.80;99.90;;;;;;5060795;28;19917;-66
2021/11/28 09:21:04;;;;;;;;;;;16.80;99.90;;;;;;5063870;28;20329;-66
2021/11/28 09:26:15;;;;;;;;;;;16.70;99.90;;;;;;5059577;28;19918;-67
2021/11/28 09:28:42;;;;;;;;;;;16.70;99.90;;;;;;5059350;28;20330;-66
2021/11/28 09:31:11;;;;;;;;;;;16.70;99.90;;;;;;5061783;28;19988;-66
2021/11/28 09:33:38;;;;;;;;;;;16.70;99.90;;;;;;5061770;28;19920;-67
2021/11/28 09:36:06;;;;;;;;;;;16.70;99.90;;;;;;5065659;28;19977;-66
2021/11/28 09:38:32;;;;;;;;;;;16.70;99.90;;;;;;5064972;28;20291;-67
2021/11/28 09:41:09;;;;;;;;;;;16.70;99.90;;;;;;5061866;28;19925;-66
2021/11/28 09:43:38;;;;;;;;;;;16.70;99.90;;;;;;5061822;28;19920;-67
2021/11/28 09:46:05;;;;;;;;;;;16.70;99.90;;;;;;5065654;28;19924;-66
2021/11/28 09:48:34;;;;;;;;;;;16.70;99.90;;;;;;5064365;28;19923;-70
2021/11/28 09:51:02;;;;;;;;;;;16.70;99.90;;;;;;5060807;28;19912;-69
2021/11/28 09:53:29;;;;;;;;;;;16.70;99.90;;;;;;5062904;28;19919;-67
2021/11/28 09:55:57;;;;;;;;;;;16.70;99.90;;;;;;5065054;28;20042;-67
2021/11/28 09:58:24;;;;;;;;;;;16.70;99.90;;;;;;5063059;28;19913;-68
2021/11/28 10:00:51;;;;;;;;;;;16.70;99.90;;;;;;5060456;28;19971;-66
2021/11/28 10:03:18;;;;;;;;;;;16.70;99.90;;;;;;5063438;28;19921;-66
2021/11/28 10:05:45;;;;;;;;;;;16.70;99.90;;;;;;5066079;28;19917;-66
2021/11/28 10:08:11;;;;;;;;;;;16.70;99.90;;;;;;5064558;28;19919;-68
2021/11/28 10:10:39;;;;;;;;;;;16.60;99.90;;;;;;5065596;28;19916;-70
2021/11/28 10:13:05;;;;;;;;;;;16.60;99.90;;;;;;5061407;28;20345;-73
2021/11/28 10:15:32;;;;;;;;;;;16.60;99.90;;;;;;5068495;28;19912;-71
2021/11/28 10:17:59;;;;;;;;;;;16.60;99.90;;;;;;5064773;28;19915;-73
2021/11/28 10:20:27;;;;;;;;;;;16.60;99.90;;;;;;5065140;28;19928;-76
2021/11/28 10:22:54;;;;;;;;;;;16.70;99.90;;;;;;5060348;28;19919;-74
2021/11/28 10:25:25;;;;;;;;;;;16.70;99.90;;;;;;5061293;28;20007;-70
2021/11/28 10:27:57;;;;;;;;;;;16.80;99.90;;;;;;5058791;28;19916;-73
2021/11/28 10:30:29;;;;;;;;;;;16.70;99.90;;;;;;5061049;28;20313;-77
2021/11/28 10:32:57;;;;;;;;;;;16.70;99.90;;;;;;5060319;28;19916;-77
2021/11/28 10:35:23;;;;;;;;;;;16.60;99.90;;;;;;5060829;28;19912;-67
2021/11/28 10:37:52;;;;;;;;;;;16.60;99.90;;;;;;5064811;28;19974;-75
2021/11/28 10:40:20;;;;;;;;;;;16.60;99.90;;;;;;5063152;28;19925;-71
2021/11/28 10:42:50;;;;;;;;;;;16.60;99.90;;;;;;5064726;28;20346;-74
2021/11/28 10:45:19;;;;;;;;;;;16.60;99.90;;;;;;5063119;28;19931;-70
2021/11/28 10:47:53;;;;;;;;;;;16.60;99.90;;;;;;5059829;28;19923;-68
2021/11/28 10:50:27;;;;;;;;;;;16.60;99.90;;;;;;5061455;28;19963;-67
2021/11/28 10:53:02;;;;;;;;;;;16.50;99.90;;;;;;5064533;28;20251;-67
2021/11/28 10:55:34;;;;;;;;;;;16.50;99.90;;;;;;5061374;28;19916;-67
2021/11/28 10:58:24;;;;;;;;;;;16.50;99.90;;;;;;5064117;28;19913;-66
2021/11/28 11:00:51;;;;;;;;;;;16.50;99.90;;;;;;5064324;28;20361;-66
2021/11/28 11:03:22;;;;;;;;;;;16.50;99.90;;;;;;5061040;28;19963;-67
2021/11/28 11:05:51;;;;;;;;;;;16.50;99.90;;;;;;5058141;28;19920;-72
2021/11/28 11:08:18;;;;;;;;;;;16.40;99.90;;;;;;5067985;28;20259;-70
2021/11/28 11:10:47;;;;;;;;;;;16.40;99.90;;;;;;5064829;28;19912;-66
2021/11/28 11:13:17;;;;;;;;;;;16.50;99.90;;;;;;5060229;28;20003;-67
2021/11/28 11:15:45;;;;;;;;;;;16.40;99.90;;;;;;5058396;28;19951;-71
2021/11/28 11:18:17;;;;;;;;;;;16.40;99.90;;;;;;5057194;28;21234;-66
2021/11/28 11:20:44;;;;;;;;;;;16.40;99.90;;;;;;5059809;28;19928;-73
2021/11/28 11:23:29;;;;;;;;;;;16.40;99.90;;;;;;5062665;28;19920;-71
2021/11/28 11:26:11;;;;;;;;;;;16.40;99.90;;;;;;5067151;28;19921;-73
2021/11/28 11:28:57;;;;;;;;;;;16.40;99.90;;;;;;5061148;28;20359;-74
2021/11/28 11:31:24;;;;;;;;;;;16.40;99.90;;;;;;5059630;28;19975;-75
2021/11/28 11:33:51;;;;;;;;;;;16.40;99.90;;;;;;5066905;28;20443;-76
2021/11/28 11:36:17;;;;;;;;;;;16.40;99.90;;;;;;5063944;28;20322;-71
2021/11/28 11:38:44;;;;;;;;;;;16.40;99.90;;;;;;5063046;28;19931;-66
2021/11/28 11:41:10;;;;;;;;;;;16.40;99.90;;;;;;5061847;28;19921;-68
2021/11/28 11:43:39;;;;;;;;;;;16.40;99.90;;;;;;5061406;28;19967;-74
2021/11/28 11:46:10;;;;;;;;;;;16.40;99.90;;;;;;5062534;28;19948;-75
2021/11/28 11:48:37;;;;;;;;;;;16.40;99.90;;;;;;5065451;28;19966;-75
2021/11/28 11:51:04;;;;;;;;;;;16.40;99.90;;;;;;5065741;28;19920;-73
2021/11/28 11:53:32;;;;;;;;;;;16.40;99.90;;;;;;5063866;28;20007;-72
2021/11/28 11:56:00;;;;;;;;;;;16.40;99.90;;;;;;5061682;28;19912;-71
2021/11/28 11:58:27;;;;;;;;;;;16.40;99.90;;;;;;5061325;28;20351;-74
2021/11/28 12:01:03;;;;;;;;;;;16.40;99.90;;;;;;5061644;28;20003;-72
2021/11/28 12:03:42;;;;;;;;;;;16.30;99.90;;;;;;5068256;28;19931;-74
2021/11/28 12:06:09;;;;;;;;;;;16.30;99.90;;;;;;5062291;28;19920;-75
2021/11/28 12:08:47;;;;;;;;;;;16.30;99.90;;;;;;5055201;28;19919;-75
2021/11/28 12:11:15;;;;;;;;;;;16.30;99.90;;;;;;5058499;28;19920;-75
2021/11/28 12:13:41;;;;;;;;;;;16.30;99.90;;;;;;5060773;28;19955;-74
2021/11/28 12:16:08;;;;;;;;;;;16.30;99.90;;;;;;5055330;28;19916;-73
2021/11/28 12:18:34;;;;;;;;;;;16.30;99.90;;;;;;5067891;28;20416;-70
2021/11/28 12:21:02;;;;;;;;;;;16.30;99.90;;;;;;5063058;28;20321;-66
2021/11/28 12:23:47;;;;;;;;;;;16.20;99.90;;;;;;5060176;28;19916;-69
2021/11/28 12:26:26;;;;;;;;;;;16.30;99.90;;;;;;5057544;28;20003;-66
2021/11/28 12:28:57;;;;;;;;;;;16.20;99.90;;;;;;5057644;28;20290;-66
2021/11/28 12:31:32;;;;;;;;;;;16.30;99.90;;;;;;5062543;28;19965;-66
2021/11/28 12:33:58;;;;;;;;;;;16.20;99.90;;;;;;5057469;28;20381;-67
2021/11/28 12:36:34;;;;;;;;;;;16.20;99.90;;;;;;5063917;28;19916;-66
2021/11/28 12:39:01;;;;;;;;;;;16.20;99.90;;;;;;5073181;28;19969;-69
2021/11/28 12:44:18;;;;;;;;;;;16.20;99.90;;;;;;5058069;28;19999;-66
2021/11/28 12:46:49;;;;;;;;;;;16.20;99.90;;;;;;5060140;28;19920;-68
2021/11/28 12:49:26;;;;;;;;;;;16.20;99.90;;;;;;5059201;28;19916;-70
2021/11/28 12:51:54;;;;;;;;;;;16.10;99.90;;;;;;5059432;28;19920;-66
2021/11/28 12:54:27;;;;;;;;;;;16.10;99.90;;;;;;5062499;28;19932;-68
2021/11/28 12:57:23;;;;;;;;;;;16.10;99.90;;;;;;5055060;28;19920;-67
2021/11/28 13:00:08;;;;;;;;;;;16.10;99.90;;;;;;5054526;28;20015;-66
2021/11/28 13:02:45;;;;;;;;;;;16.10;99.90;;;;;;5062333;28;19992;-66
2021/11/28 13:05:31;;;;;;;;;;;16.10;99.90;;;;;;5057392;28;19966;-66
2021/11/28 13:08:00;;;;;;;;;;;16.20;99.90;;;;;;5066827;28;19912;-66
2021/11/28 13:10:27;;;;;;;;;;;16.20;99.90;;;;;;5063232;28;19939;-66
2021/11/28 13:12:59;;;;;;;;;;;16.20;99.90;;;;;;5059932;28;19913;-66
2021/11/28 13:15:27;;;;;;;;;;;16.20;99.90;;;;;;5064006;28;19920;-66
2021/11/28 13:17:55;;;;;;;;;;;16.20;99.90;;;;;;5063717;28;19974;-66
2021/11/28 13:20:21;;;;;;;;;;;16.10;99.90;;;;;;5063867;28;19928;-66
2021/11/28 13:22:49;;;;;;;;;;;16.10;99.90;;;;;;5064581;28;19917;-67
2021/11/28 13:25:47;;;;;;;;;;;16.10;99.90;;;;;;5071105;28;19913;-66
2021/11/28 13:28:15;;;;;;;;;;;16.10;99.90;;;;;;5046429;28;19939;-70
2021/11/28 13:30:45;;;;;;;;;;;16.10;99.90;;;;;;5064979;28;20007;-67
2021/11/28 13:33:13;;;;;;;;;;;16.10;99.90;;;;;;5066342;28;19920;-68
2021/11/28 13:35:40;;;;;;;;;;;16.00;99.90;;;;;;5067166;28;20370;-66
2021/11/28 13:38:14;;;;;;;;;;;16.00;99.90;;;;;;5063517;28;19963;-69
2021/11/28 13:40:40;;;;;;;;;;;16.00;99.90;;;;;;5081359;28;19987;-67
2021/11/28 13:43:07;;;;;;;;;;;15.90;99.90;;;;;;5066402;28;20440;-66
2021/11/28 13:45:34;;;;;;;;;;;15.90;99.90;;;;;;5065241;28;20003;-67
2021/11/28 13:48:00;;;;;;;;;;;15.90;99.90;;;;;;5059455;28;19967;-67
2021/11/28 13:50:29;;;;;;;;;;;15.80;99.90;;;;;;5070367;28;19916;-66
2021/11/28 13:53:14;;;;;;;;;;;15.80;99.90;;;;;;5066540;28;19943;-67
2021/11/28 13:55:50;;;;;;;;;;;15.80;99.90;;;;;;5063001;28;20011;-66
2021/11/28 13:58:21;;;;;;;;;;;15.80;99.90;;;;;;5066182;28;20411;-66
2021/11/28 14:00:48;;;;;;;;;;;15.70;99.90;;;;;;5068143;28;20366;-67
2021/11/28 14:03:14;;;;;;;;;;;15.60;99.90;;;;;;5064754;28;20379;-67
2021/11/28 14:05:43;;;;;;;;;;;15.70;99.90;;;;;;5057925;28;19916;-67
2021/11/28 14:08:11;;;;;;;;;;;15.60;99.90;;;;;;5064440;28;20380;-69
2021/11/28 14:10:39;;;;;;;;;;;15.60;99.90;;;;;;5061307;28;20012;-67
2021/11/28 14:13:07;;;;;;;;;;;15.60;99.90;;;;;;5061351;28;19931;-67
2021/11/28 14:15:34;;;;;;;;;;;15.50;99.90;;;;;;5062766;28;19916;-68
2021/11/28 14:18:09;;;;;;;;;;;15.50;99.90;;;;;;5059415;28;20363;-68
2021/11/28 14:20:37;;;;;;;;;;;15.40;99.90;;;;;;5062123;28;20015;-67
2021/11/28 14:23:05;;;;;;;;;;;15.40;99.90;;;;;;5057467;28;19924;-66
2021/11/28 14:25:35;;;;;;;;;;;15.40;99.90;;;;;;5067631;28;19913;-66
2021/11/28 14:28:04;;;;;;;;;;;15.30;99.90;;;;;;5063308;28;19917;-68
2021/11/28 14:30:31;;;;;;;;;;;15.30;99.90;;;;;;5064764;28;19922;-67
2021/11/28 14:33:02;;;;;;;;;;;15.30;99.90;;;;;;5061105;28;19919;-70
2021/11/28 14:35:29;;;;;;;;;;;15.30;99.90;;;;;;5067714;28;19917;-69